sensor_id;sensor_type;location;lat;lon;timestamp;pressure;altitude;pressure_sealevel;temperature;humidity
50672;BME280;46021;55.882;37.654;2023-02-01T00:01:20;98198.66;;;-0.81;78.66
50672;BME280;46021;55.882;37.654;2023-02-01T00:03:47;98195.34;;;-0.89;79.81
50672;BME280;46021;55.882;37.654;2023-02-01T00:06:14;98206.44;;;-0.93;79.58
50672;BME280;46021;55.882;37.654;2023-02-01T00:08:41;98203.03;;;-0.90;79.17
50672;BME280;46021;55.882;37.654;2023-02-01T00:11:10;98197.25;;;-1.09;79.90
50672;BME280;46021;55.882;37.654;2023-02-01T00:13:39;98209.97;;;-1.03;81.01
50672;BME280;46021;55.882;37.654;2023-02-01T00:16:09;98202.28;;;-1.00;80.98
50672;BME280;46021;55.882;37.654;2023-02-01T00:18:37;98203.13;;;-1.00;80.64
50672;BME280;46021;55.882;37.654;2023-02-01T00:21:05;98202.28;;;-1.00;80.91
50672;BME280;46021;55.882;37.654;2023-02-01T00:23:32;98206.56;;;-1.05;80.23
50672;BME280;46021;55.882;37.654;2023-02-01T00:26:00;98196.34;;;-1.04;80.32
50672;BME280;46021;55.882;37.654;2023-02-01T00:28:28;98198.84;;;-0.99;80.06
50672;BME280;46021;55.882;37.654;2023-02-01T00:30:58;98205.66;;;-1.00;80.21
50672;BME280;46021;55.882;37.654;2023-02-01T00:33:27;98207.38;;;-1.00;81.28
50672;BME280;46021;55.882;37.654;2023-02-01T00:35:56;98205.69;;;-1.04;81.12
50672;BME280;46021;55.882;37.654;2023-02-01T00:38:24;98205.75;;;-1.07;81.23
50672;BME280;46021;55.882;37.654;2023-02-01T00:40:51;98204.03;;;-1.08;81.44
50672;BME280;46021;55.882;37.654;2023-02-01T00:43:18;98201.53;;;-1.13;81.76
50672;BME280;46021;55.882;37.654;2023-02-01T00:45:45;98204.06;;;-1.11;81.27
50672;BME280;46021;55.882;37.654;2023-02-01T00:48:12;98200.63;;;-1.07;81.75
50672;BME280;46021;55.882;37.654;2023-02-01T00:50:42;98198.91;;;-1.05;81.94
50672;BME280;46021;55.882;37.654;2023-02-01T00:53:10;98201.47;;;-1.07;81.31
50672;BME280;46021;55.882;37.654;2023-02-01T00:55:37;98198.84;;;-0.99;81.07
50672;BME280;46021;55.882;37.654;2023-02-01T00:58:04;98190.41;;;-1.07;80.51
50672;BME280;46021;55.882;37.654;2023-02-01T01:00:35;98194.56;;;-0.99;81.39
50672;BME280;46021;55.882;37.654;2023-02-01T01:03:02;98195.44;;;-1.01;81.25
50672;BME280;46021;55.882;37.654;2023-02-01T01:05:44;98196.28;;;-1.01;80.16
50672;BME280;46021;55.882;37.654;2023-02-01T01:08:11;98195.50;;;-1.07;80.18
50672;BME280;46021;55.882;37.654;2023-02-01T01:10:39;98197.19;;;-1.05;81.20
50672;BME280;46021;55.882;37.654;2023-02-01T01:13:07;98198.84;;;-1.02;80.01
50672;BME280;46021;55.882;37.654;2023-02-01T01:15:36;98199.72;;;-1.00;79.81
50672;BME280;46021;55.882;37.654;2023-02-01T01:18:03;98194.59;;;-1.02;79.88
50672;BME280;46021;55.882;37.654;2023-02-01T01:20:30;98197.94;;;-0.96;80.75
50672;BME280;46021;55.882;37.654;2023-02-01T01:22:58;98209.88;;;-0.94;80.38
50672;BME280;46021;55.882;37.654;2023-02-01T01:25:26;98198.00;;;-1.01;80.71
50672;BME280;46021;55.882;37.654;2023-02-01T01:27:53;98205.59;;;-0.92;79.57
50672;BME280;46021;55.882;37.654;2023-02-01T01:30:20;98205.69;;;-1.01;79.58
50672;BME280;46021;55.882;37.654;2023-02-01T01:32:48;98209.88;;;-0.92;79.50
50672;BME280;46021;55.882;37.654;2023-02-01T01:35:15;98211.59;;;-0.96;80.21
50672;BME280;46021;55.882;37.654;2023-02-01T01:37:42;98221.88;;;-1.02;79.57
50672;BME280;46021;55.882;37.654;2023-02-01T01:40:12;98207.34;;;-0.97;79.67
50672;BME280;46021;55.882;37.654;2023-02-01T01:42:40;98212.44;;;-0.94;80.20
50672;BME280;46021;55.882;37.654;2023-02-01T01:45:20;98216.72;;;-0.96;79.98
50672;BME280;46021;55.882;37.654;2023-02-01T01:47:50;98209.00;;;-0.93;78.65
50672;BME280;46021;55.882;37.654;2023-02-01T01:50:20;98214.94;;;-0.89;78.63
50672;BME280;46021;55.882;37.654;2023-02-01T01:52:51;98226.06;;;-0.90;78.93
50672;BME280;46021;55.882;37.654;2023-02-01T01:55:24;98217.56;;;-0.95;79.63
50672;BME280;46021;55.882;37.654;2023-02-01T01:57:55;98212.38;;;-0.86;79.53
50672;BME280;46021;55.882;37.654;2023-02-01T02:00:25;98216.66;;;-0.88;78.62
50672;BME280;46021;55.882;37.654;2023-02-01T02:02:57;98216.66;;;-0.91;78.65
50672;BME280;46021;55.882;37.654;2023-02-01T02:05:26;98213.28;;;-0.93;78.44
50672;BME280;46021;55.882;37.654;2023-02-01T02:07:58;98217.50;;;-0.88;79.17
50672;BME280;46021;55.882;37.654;2023-02-01T02:10:28;98216.66;;;-0.90;78.55
50672;BME280;46021;55.882;37.654;2023-02-01T02:13:10;98220.03;;;-0.85;78.50
50672;BME280;46021;55.882;37.654;2023-02-01T02:15:41;98220.94;;;-0.90;79.81
50672;BME280;46021;55.882;37.654;2023-02-01T02:18:15;98219.22;;;-0.88;79.34
50672;BME280;46021;55.882;37.654;2023-02-01T02:20:57;98221.69;;;-0.82;78.46
50672;BME280;46021;55.882;37.654;2023-02-01T02:23:56;98217.47;;;-0.85;78.79
50672;BME280;46021;55.882;37.654;2023-02-01T02:26:47;98231.16;;;-0.89;78.99
50672;BME280;46021;55.882;37.654;2023-02-01T02:29:40;98228.59;;;-0.89;78.58
50672;BME280;46021;55.882;37.654;2023-02-01T02:32:38;98229.50;;;-0.94;78.32
50672;BME280;46021;55.882;37.654;2023-02-01T02:35:20;98231.16;;;-0.89;79.12
50672;BME280;46021;55.882;37.654;2023-02-01T02:37:55;98233.72;;;-0.89;78.85
50672;BME280;46021;55.882;37.654;2023-02-01T02:40:32;98231.16;;;-0.89;78.07
50672;BME280;46021;55.882;37.654;2023-02-01T02:43:06;98231.94;;;-0.85;78.98
50672;BME280;46021;55.882;37.654;2023-02-01T02:45:56;98233.69;;;-0.87;78.13
50672;BME280;46021;55.882;37.654;2023-02-01T02:48:49;98233.69;;;-0.87;79.18
50672;BME280;46021;55.882;37.654;2023-02-01T02:51:23;98243.03;;;-0.83;78.96
50672;BME280;46021;55.882;37.654;2023-02-01T02:54:12;98237.94;;;-0.86;78.19
50672;BME280;46021;55.882;37.654;2023-02-01T02:56:59;98241.31;;;-0.83;78.35
50672;BME280;46021;55.882;37.654;2023-02-01T02:59:47;98249.84;;;-0.81;78.99
50672;BME280;46021;55.882;37.654;2023-02-01T03:02:33;98241.31;;;-0.83;77.70
50672;BME280;46021;55.882;37.654;2023-02-01T03:05:18;98238.78;;;-0.86;78.06
50672;BME280;46021;55.882;37.654;2023-02-01T03:08:02;98233.59;;;-0.78;78.63
50672;BME280;46021;55.882;37.654;2023-02-01T03:10:35;98242.09;;;-0.73;78.72
50672;BME280;46021;55.882;37.654;2023-02-01T03:13:12;98229.34;;;-0.77;79.11
50672;BME280;46021;55.882;37.654;2023-02-01T03:15:43;98234.47;;;-0.77;77.80
50672;BME280;46021;55.882;37.654;2023-02-01T03:18:15;98237.03;;;-0.79;78.39
50672;BME280;46021;55.882;37.654;2023-02-01T03:20:47;98242.16;;;-0.84;77.97
50672;BME280;46021;55.882;37.654;2023-02-01T03:23:22;98241.31;;;-0.83;78.32
50672;BME280;46021;55.882;37.654;2023-02-01T03:25:52;98243.00;;;-0.80;78.62
50672;BME280;46021;55.882;37.654;2023-02-01T03:28:23;98243.00;;;-0.79;78.65
50672;BME280;46021;55.882;37.654;2023-02-01T03:30:51;98239.59;;;-0.77;77.50
50672;BME280;46021;55.882;37.654;2023-02-01T03:33:21;98247.25;;;-0.77;77.83
50672;BME280;46021;55.882;37.654;2023-02-01T03:35:57;98244.72;;;-0.79;78.70
50672;BME280;46021;55.882;37.654;2023-02-01T03:38:30;98246.41;;;-0.80;77.81
50672;BME280;46021;55.882;37.654;2023-02-01T03:41:03;98237.97;;;-0.91;77.95
50672;BME280;46021;55.882;37.654;2023-02-01T03:43:41;98253.28;;;-0.85;78.08
50672;BME280;46021;55.882;37.654;2023-02-01T03:46:12;98244.78;;;-0.87;78.19
50672;BME280;46021;55.882;37.654;2023-02-01T03:48:44;98254.97;;;-0.84;77.92
50672;BME280;46021;55.882;37.654;2023-02-01T03:51:11;98252.47;;;-0.88;78.29
50672;BME280;46021;55.882;37.654;2023-02-01T03:53:41;98261.84;;;-0.89;78.36
50672;BME280;46021;55.882;37.654;2023-02-01T03:56:11;98268.66;;;-0.91;77.47
50672;BME280;46021;55.882;37.654;2023-02-01T03:58:39;98272.09;;;-0.90;78.54
50672;BME280;46021;55.882;37.654;2023-02-01T04:01:06;98267.81;;;-0.88;77.46
50672;BME280;46021;55.882;37.654;2023-02-01T04:03:36;98268.66;;;-0.88;77.46
50672;BME280;46021;55.882;37.654;2023-02-01T04:06:04;98262.78;;;-0.99;78.04
50672;BME280;46021;55.882;37.654;2023-02-01T04:08:31;98279.75;;;-0.89;78.05
50672;BME280;46021;55.882;37.654;2023-02-01T04:10:59;98291.66;;;-0.85;78.19
50672;BME280;46021;55.882;37.654;2023-02-01T04:13:26;98284.00;;;-0.88;78.65
50672;BME280;46021;55.882;37.654;2023-02-01T04:15:53;98293.44;;;-0.94;79.06
50672;BME280;46021;55.882;37.654;2023-02-01T04:18:20;98292.56;;;-0.90;79.23
50672;BME280;46021;55.882;37.654;2023-02-01T04:20:47;98295.88;;;-0.81;78.46
50672;BME280;46021;55.882;37.654;2023-02-01T04:23:15;98291.59;;;-0.77;78.29
50672;BME280;46021;55.882;37.654;2023-02-01T04:25:42;98297.53;;;-0.76;78.23
50672;BME280;46021;55.882;37.654;2023-02-01T04:28:10;98293.31;;;-0.77;78.63
50672;BME280;46021;55.882;37.654;2023-02-01T04:30:37;98294.13;;;-0.75;77.53
50672;BME280;46021;55.882;37.654;2023-02-01T04:33:04;98296.72;;;-0.79;78.29
50672;BME280;46021;55.882;37.654;2023-02-01T04:35:32;98296.72;;;-0.77;77.86
50672;BME280;46021;55.882;37.654;2023-02-01T04:37:59;98306.09;;;-0.77;78.71
50672;BME280;46021;55.882;37.654;2023-02-01T04:40:26;98302.66;;;-0.73;78.57
50672;BME280;46021;55.882;37.654;2023-02-01T04:42:53;98306.03;;;-0.71;78.93
50672;BME280;46021;55.882;37.654;2023-02-01T04:45:21;98309.44;;;-0.74;77.95
50672;BME280;46021;55.882;37.654;2023-02-01T04:47:48;98302.59;;;-0.70;78.29
50672;BME280;46021;55.882;37.654;2023-02-01T04:50:16;98306.03;;;-0.71;79.02
50672;BME280;46021;55.882;37.654;2023-02-01T04:52:43;98313.72;;;-0.70;77.55
50672;BME280;46021;55.882;37.654;2023-02-01T04:55:11;98310.28;;;-0.72;78.28
50672;BME280;46021;55.882;37.654;2023-02-01T04:57:39;98317.97;;;-0.70;78.13
50672;BME280;46021;55.882;37.654;2023-02-01T05:00:08;98323.97;;;-0.73;77.82
50672;BME280;46021;55.882;37.654;2023-02-01T05:02:37;98318.91;;;-0.77;78.01
50672;BME280;46021;55.882;37.654;2023-02-01T05:05:05;98318.84;;;-0.76;78.86
50672;BME280;46021;55.882;37.654;2023-02-01T05:07:32;98326.50;;;-0.71;78.09
50672;BME280;46021;55.882;37.654;2023-02-01T05:09:59;98324.78;;;-0.72;78.13
50672;BME280;46021;55.882;37.654;2023-02-01T05:12:26;98318.84;;;-0.76;78.63
50672;BME280;46021;55.882;37.654;2023-02-01T05:15:11;98322.22;;;-0.71;78.56
50672;BME280;46021;55.882;37.654;2023-02-01T05:17:39;98315.44;;;-0.75;78.17
50672;BME280;46021;55.882;37.654;2023-02-01T05:20:08;98333.28;;;-0.67;78.00
50672;BME280;46021;55.882;37.654;2023-02-01T05:22:35;98329.06;;;-0.70;77.79
50672;BME280;46021;55.882;37.654;2023-02-01T05:25:02;98335.84;;;-0.66;78.45
50672;BME280;46021;55.882;37.654;2023-02-01T05:27:29;98333.28;;;-0.64;77.89
50672;BME280;46021;55.882;37.654;2023-02-01T05:29:56;98340.91;;;-0.63;77.34
50672;BME280;46021;55.882;37.654;2023-02-01T05:32:23;98339.19;;;-0.59;78.79
50672;BME280;46021;55.882;37.654;2023-02-01T05:34:52;98341.75;;;-0.59;77.62
50672;BME280;46021;55.882;37.654;2023-02-01T05:37:19;98340.91;;;-0.58;77.68
50672;BME280;46021;55.882;37.654;2023-02-01T05:39:46;98340.91;;;-0.61;78.63
50672;BME280;46021;55.882;37.654;2023-02-01T05:42:13;98340.09;;;-0.65;77.53
50672;BME280;46021;55.882;37.654;2023-02-01T05:44:40;98335.91;;;-0.75;78.46
50672;BME280;46021;55.882;37.654;2023-02-01T05:47:07;98346.97;;;-0.71;78.76
50672;BME280;46021;55.882;37.654;2023-02-01T05:49:35;98346.09;;;-0.69;78.06
50672;BME280;46021;55.882;37.654;2023-02-01T05:52:03;98351.19;;;-0.66;78.96
50672;BME280;46021;55.882;37.654;2023-02-01T05:54:30;98353.78;;;-0.70;79.48
50672;BME280;46021;55.882;37.654;2023-02-01T05:56:58;98347.75;;;-0.65;77.80
50672;BME280;46021;55.882;37.654;2023-02-01T05:59:25;98348.59;;;-0.61;78.10
50672;BME280;46021;55.882;37.654;2023-02-01T06:01:52;98350.25;;;-0.57;78.43
50672;BME280;46021;55.882;37.654;2023-02-01T06:04:19;98348.59;;;-0.61;79.37
50672;BME280;46021;55.882;37.654;2023-02-01T06:06:46;98350.25;;;-0.54;77.99
50672;BME280;46021;55.882;37.654;2023-02-01T06:09:19;98345.97;;;-0.55;78.81
50672;BME280;46021;55.882;37.654;2023-02-01T06:11:46;98352.75;;;-0.49;79.26
50672;BME280;46021;55.882;37.654;2023-02-01T06:14:13;98360.41;;;-0.45;79.36
50672;BME280;46021;55.882;37.654;2023-02-01T06:16:40;98367.19;;;-0.44;77.65
50672;BME280;46021;55.882;37.654;2023-02-01T06:19:07;98356.25;;;-0.56;77.91
50672;BME280;46021;55.882;37.654;2023-02-01T06:21:35;98367.31;;;-0.56;78.99
50672;BME280;46021;55.882;37.654;2023-02-01T06:24:02;98369.94;;;-0.64;78.85
50672;BME280;46021;55.882;37.654;2023-02-01T06:26:31;98364.91;;;-0.76;79.47
50672;BME280;46021;55.882;37.654;2023-02-01T06:28:58;98370.91;;;-0.75;80.04
50672;BME280;46021;55.882;37.654;2023-02-01T06:31:25;98367.50;;;-0.77;78.88
50672;BME280;46021;55.882;37.654;2023-02-01T06:33:53;98370.91;;;-0.75;79.05
50672;BME280;46021;55.882;37.654;2023-02-01T06:36:20;98377.69;;;-0.74;79.57
50672;BME280;46021;55.882;37.654;2023-02-01T06:38:48;98374.25;;;-0.72;80.25
50672;BME280;46021;55.882;37.654;2023-02-01T06:41:15;98380.19;;;-0.67;79.96
50672;BME280;46021;55.882;37.654;2023-02-01T06:43:43;98381.03;;;-0.63;80.15
50672;BME280;46021;55.882;37.654;2023-02-01T06:46:12;98384.41;;;-0.61;80.72
50672;BME280;46021;55.882;37.654;2023-02-01T06:48:40;98373.34;;;-0.63;81.24
50672;BME280;46021;55.882;37.654;2023-02-01T06:51:18;98384.41;;;-0.58;80.80
50672;BME280;46021;55.882;37.654;2023-02-01T06:53:46;98379.25;;;-0.55;81.57
50672;BME280;46021;55.882;37.654;2023-02-01T06:56:13;98375.84;;;-0.57;80.16
50672;BME280;46021;55.882;37.654;2023-02-01T06:58:40;98385.19;;;-0.51;81.00
50672;BME280;46021;55.882;37.654;2023-02-01T07:01:09;98381.78;;;-0.52;80.53
50672;BME280;46021;55.882;37.654;2023-02-01T07:03:37;98392.03;;;-0.53;80.37
50672;BME280;46021;55.882;37.654;2023-02-01T07:06:05;98391.22;;;-0.57;80.37
50672;BME280;46021;55.882;37.654;2023-02-01T07:08:34;98389.53;;;-0.61;80.08
50672;BME280;46021;55.882;37.654;2023-02-01T07:11:02;98393.81;;;-0.58;80.68
50672;BME280;46021;55.882;37.654;2023-02-01T07:13:29;98395.47;;;-0.56;80.47
50672;BME280;46021;55.882;37.654;2023-02-01T07:15:58;98394.63;;;-0.56;81.40
50672;BME280;46021;55.882;37.654;2023-02-01T07:18:28;98392.91;;;-0.56;80.18
50672;BME280;46021;55.882;37.654;2023-02-01T07:20:55;98399.69;;;-0.52;81.38
50672;BME280;46021;55.882;37.654;2023-02-01T07:23:23;98400.59;;;-0.53;80.15
50672;BME280;46021;55.882;37.654;2023-02-01T07:25:53;98392.06;;;-0.56;81.44
50672;BME280;46021;55.882;37.654;2023-02-01T07:28:20;98401.41;;;-0.51;81.92
50672;BME280;46021;55.882;37.654;2023-02-01T07:30:48;98406.53;;;-0.51;81.25
50672;BME280;46021;55.882;37.654;2023-02-01T07:33:18;98406.56;;;-0.54;81.68
50672;BME280;46021;55.882;37.654;2023-02-01T07:35:47;98411.66;;;-0.54;80.03
50672;BME280;46021;55.882;37.654;2023-02-01T07:38:14;98409.13;;;-0.57;80.67
50672;BME280;46021;55.882;37.654;2023-02-01T07:40:42;98414.22;;;-0.54;80.85
50672;BME280;46021;55.882;37.654;2023-02-01T07:43:09;98410.00;;;-0.58;81.23
50672;BME280;46021;55.882;37.654;2023-02-01T07:45:36;98405.66;;;-0.51;81.54
50672;BME280;46021;55.882;37.654;2023-02-01T07:48:04;98411.66;;;-0.51;80.91
50672;BME280;46021;55.882;37.654;2023-02-01T07:50:31;98403.97;;;-0.52;82.15
50672;BME280;46021;55.882;37.654;2023-02-01T07:53:00;98408.22;;;-0.50;81.68
50672;BME280;46021;55.882;37.654;2023-02-01T07:55:27;98407.38;;;-0.52;81.46
50672;BME280;46021;55.882;37.654;2023-02-01T07:57:57;98410.81;;;-0.54;81.71
50672;BME280;46021;55.882;37.654;2023-02-01T08:00:25;98409.16;;;-0.58;81.86
50672;BME280;46021;55.882;37.654;2023-02-01T08:03:09;98409.19;;;-0.65;81.60
50672;BME280;46021;55.882;37.654;2023-02-01T08:05:36;98409.19;;;-0.66;81.65
50672;BME280;46021;55.882;37.654;2023-02-01T08:08:05;98410.94;;;-0.70;80.92
50672;BME280;46021;55.882;37.654;2023-02-01T08:10:33;98409.19;;;-0.66;80.40
50672;BME280;46021;55.882;37.654;2023-02-01T08:13:01;98408.38;;;-0.70;81.50
50672;BME280;46021;55.882;37.654;2023-02-01T08:15:29;98403.22;;;-0.68;81.20
50672;BME280;46021;55.882;37.654;2023-02-01T08:17:56;98393.00;;;-0.68;81.16
50672;BME280;46021;55.882;37.654;2023-02-01T08:20:24;98407.44;;;-0.56;80.85
50672;BME280;46021;55.882;37.654;2023-02-01T08:22:52;98397.22;;;-0.60;80.60
50672;BME280;46021;55.882;37.654;2023-02-01T08:25:21;98409.03;;;-0.46;80.49
50672;BME280;46021;55.882;37.654;2023-02-01T08:27:49;98392.94;;;-0.59;80.69
50672;BME280;46021;55.882;37.654;2023-02-01T08:30:17;98398.91;;;-0.58;80.16
50672;BME280;46021;55.882;37.654;2023-02-01T08:32:44;98394.75;;;-0.73;80.49
50672;BME280;46021;55.882;37.654;2023-02-01T08:35:11;98399.00;;;-0.74;79.48
50672;BME280;46021;55.882;37.654;2023-02-01T08:37:38;98404.06;;;-0.65;80.95
50672;BME280;46021;55.882;37.654;2023-02-01T08:40:07;98405.72;;;-0.57;79.85
50672;BME280;46021;55.882;37.654;2023-02-01T08:42:35;98404.81;;;-0.52;80.33
50672;BME280;46021;55.882;37.654;2023-02-01T08:45:18;98399.69;;;-0.49;80.36
50672;BME280;46021;55.882;37.654;2023-02-01T08:47:45;98401.31;;;-0.40;80.08
50672;BME280;46021;55.882;37.654;2023-02-01T08:50:14;98399.66;;;-0.46;79.11
50672;BME280;46021;55.882;37.654;2023-02-01T08:52:41;98395.34;;;-0.42;80.14
50672;BME280;46021;55.882;37.654;2023-02-01T08:55:09;98396.16;;;-0.35;80.80
50672;BME280;46021;55.882;37.654;2023-02-01T08:57:38;98384.28;;;-0.44;80.99
50672;BME280;46021;55.882;37.654;2023-02-01T09:00:07;98398.72;;;-0.34;79.49
50672;BME280;46021;55.882;37.654;2023-02-01T09:02:35;98396.16;;;-0.35;79.27
50672;BME280;46021;55.882;37.654;2023-02-01T09:05:03;98388.56;;;-0.43;79.42
50672;BME280;46021;55.882;37.654;2023-02-01T09:07:30;98395.28;;;-0.36;80.68
50672;BME280;46021;55.882;37.654;2023-02-01T09:09:58;98397.78;;;-0.25;81.39
50672;BME280;46021;55.882;37.654;2023-02-01T09:12:27;98394.38;;;-0.30;79.42
50672;BME280;46021;55.882;37.654;2023-02-01T09:14:56;98397.78;;;-0.27;80.19
50672;BME280;46021;55.882;37.654;2023-02-01T09:17:25;98394.34;;;-0.24;80.09
50672;BME280;46021;55.882;37.654;2023-02-01T09:19:52;98398.56;;;-0.18;80.09
50672;BME280;46021;55.882;37.654;2023-02-01T09:22:20;98399.41;;;-0.16;79.16
50672;BME280;46021;55.882;37.654;2023-02-01T09:24:47;98387.44;;;-0.16;79.17
50672;BME280;46021;55.882;37.654;2023-02-01T09:27:14;98378.88;;;-0.13;80.05
50672;BME280;46021;55.882;37.654;2023-02-01T09:29:41;98393.28;;;0.00;79.83
50672;BME280;46021;55.882;37.654;2023-02-01T09:32:10;98373.66;;;-0.03;80.18
50672;BME280;46021;55.882;37.654;2023-02-01T09:34:37;98373.53;;;0.10;80.53
50672;BME280;46021;55.882;37.654;2023-02-01T09:37:04;98382.00;;;0.15;80.06
50672;BME280;46021;55.882;37.654;2023-02-01T09:39:31;98389.59;;;0.23;79.17
50672;BME280;46021;55.882;37.654;2023-02-01T09:42:05;98377.59;;;0.26;80.15
50672;BME280;46021;55.882;37.654;2023-02-01T09:44:46;98374.19;;;0.27;79.78
50672;BME280;46021;55.882;37.654;2023-02-01T09:47:19;98371.59;;;0.30;78.03
50672;BME280;46021;55.882;37.654;2023-02-01T09:49:52;98368.25;;;0.22;78.35
50672;BME280;46021;55.882;37.654;2023-02-01T09:52:26;98369.03;;;0.30;78.16
50672;BME280;46021;55.882;37.654;2023-02-01T09:54:58;98368.97;;;0.35;78.37
50672;BME280;46021;55.882;37.654;2023-02-01T09:57:40;98367.22;;;0.37;76.73
50672;BME280;46021;55.882;37.654;2023-02-01T10:00:16;98363.91;;;0.30;77.59
50672;BME280;46021;55.882;37.654;2023-02-01T10:02:45;98358.94;;;0.16;76.27
50672;BME280;46021;55.882;37.654;2023-02-01T10:05:14;98370.00;;;0.17;76.97
50672;BME280;46021;55.882;37.654;2023-02-01T10:07:49;98366.00;;;-0.06;77.73
50672;BME280;46021;55.882;37.654;2023-02-01T10:10:25;98372.88;;;-0.09;77.23
50672;BME280;46021;55.882;37.654;2023-02-01T10:13:06;98372.00;;;-0.07;77.89
50672;BME280;46021;55.882;37.654;2023-02-01T10:15:44;98376.25;;;-0.06;77.24
50672;BME280;46021;55.882;37.654;2023-02-01T10:18:24;98374.63;;;-0.13;77.51
50672;BME280;46021;55.882;37.654;2023-02-01T10:21:02;98377.25;;;-0.21;77.49
50672;BME280;46021;55.882;37.654;2023-02-01T10:23:47;98378.13;;;-0.23;77.17
50672;BME280;46021;55.882;37.654;2023-02-01T10:26:19;98373.91;;;-0.30;77.08
50672;BME280;46021;55.882;37.654;2023-02-01T10:28:49;98374.78;;;-0.31;77.16
50672;BME280;46021;55.882;37.654;2023-02-01T10:31:17;98368.03;;;-0.40;76.99
50672;BME280;46021;55.882;37.654;2023-02-01T10:33:47;98371.41;;;-0.36;76.27
50672;BME280;46021;55.882;37.654;2023-02-01T10:36:21;98371.47;;;-0.40;78.00
50672;BME280;46021;55.882;37.654;2023-02-01T10:38:48;98372.28;;;-0.37;78.02
50672;BME280;46021;55.882;37.654;2023-02-01T10:41:18;98366.28;;;-0.38;76.79
50672;BME280;46021;55.882;37.654;2023-02-01T10:43:50;98377.38;;;-0.34;76.67
50672;BME280;46021;55.882;37.654;2023-02-01T10:46:19;98372.22;;;-0.28;76.79
50672;BME280;46021;55.882;37.654;2023-02-01T10:48:48;98363.66;;;-0.30;76.74
50672;BME280;46021;55.882;37.654;2023-02-01T10:51:20;98368.75;;;-0.24;77.84
50672;BME280;46021;55.882;37.654;2023-02-01T10:53:50;98363.63;;;-0.24;78.26
50672;BME280;46021;55.882;37.654;2023-02-01T10:56:23;98371.22;;;-0.15;77.60
50672;BME280;46021;55.882;37.654;2023-02-01T10:58:50;98368.63;;;-0.12;76.35
50672;BME280;46021;55.882;37.654;2023-02-01T11:01:21;98369.41;;;-0.05;77.09
50672;BME280;46021;55.882;37.654;2023-02-01T11:03:56;98366.78;;;-0.01;76.51
50672;BME280;46021;55.882;37.654;2023-02-01T11:06:29;98372.78;;;-0.02;76.33
50672;BME280;46021;55.882;37.654;2023-02-01T11:08:58;98360.88;;;-0.06;77.85
50672;BME280;46021;55.882;37.654;2023-02-01T11:11:26;98372.81;;;-0.03;77.13
50672;BME280;46021;55.882;37.654;2023-02-01T11:13:55;98359.28;;;-0.19;75.76
50672;BME280;46021;55.882;37.654;2023-02-01T11:16:30;98364.47;;;-0.25;76.14
50672;BME280;46021;55.882;37.654;2023-02-01T11:18:59;98377.34;;;-0.28;78.02
50672;BME280;46021;55.882;37.654;2023-02-01T11:21:27;98370.59;;;-0.38;77.03
50672;BME280;46021;55.882;37.654;2023-02-01T11:24:00;98375.81;;;-0.51;77.42
50672;BME280;46021;55.882;37.654;2023-02-01T11:26:28;98377.56;;;-0.59;78.86
50672;BME280;46021;55.882;37.654;2023-02-01T11:28:59;98375.91;;;-0.60;78.82
50672;BME280;46021;55.882;37.654;2023-02-01T11:31:28;98374.25;;;-0.67;78.53
50672;BME280;46021;55.882;37.654;2023-02-01T11:34:03;98380.25;;;-0.70;77.97
50672;BME280;46021;55.882;37.654;2023-02-01T11:36:32;98381.06;;;-0.69;78.33
50672;BME280;46021;55.882;37.654;2023-02-01T11:39:19;98384.47;;;-0.64;78.23
50672;BME280;46021;55.882;37.654;2023-02-01T11:42:00;98382.75;;;-0.65;79.18
50672;BME280;46021;55.882;37.654;2023-02-01T11:44:34;98386.13;;;-0.63;79.95
50672;BME280;46021;55.882;37.654;2023-02-01T11:47:19;98390.38;;;-0.61;78.69
50672;BME280;46021;55.882;37.654;2023-02-01T11:49:48;98391.28;;;-0.66;79.09
50672;BME280;46021;55.882;37.654;2023-02-01T11:55:17;98398.09;;;-0.65;80.01
50672;BME280;46021;55.882;37.654;2023-02-01T11:58:00;98399.78;;;-0.61;80.10
50672;BME280;46021;55.882;37.654;2023-02-01T12:00:59;98400.66;;;-0.62;80.88
50672;BME280;46021;55.882;37.654;2023-02-01T12:03:53;98396.44;;;-0.69;79.21
50672;BME280;46021;55.882;37.654;2023-02-01T12:06:28;98404.13;;;-0.71;79.90
50672;BME280;46021;55.882;37.654;2023-02-01T12:09:14;98414.34;;;-0.71;79.78
50672;BME280;46021;55.882;37.654;2023-02-01T12:11:53;98406.72;;;-0.79;80.47
50672;BME280;46021;55.882;37.654;2023-02-01T12:14:34;98408.44;;;-0.77;80.51
50672;BME280;46021;55.882;37.654;2023-02-01T12:17:24;98402.50;;;-0.81;80.65
50672;BME280;46021;55.882;37.654;2023-02-01T12:20:04;98409.28;;;-0.75;80.64
50672;BME280;46021;55.882;37.654;2023-02-01T12:22:48;98405.84;;;-0.74;79.70
50672;BME280;46021;55.882;37.654;2023-02-01T12:25:38;98415.22;;;-0.73;80.01
50672;BME280;46021;55.882;37.654;2023-02-01T12:28:20;98404.22;;;-0.83;78.93
50672;BME280;46021;55.882;37.654;2023-02-01T12:34:10;98412.72;;;-0.84;79.76
50672;BME280;46021;55.882;37.654;2023-02-01T12:36:47;98396.59;;;-0.94;80.31
50672;BME280;46021;55.882;37.654;2023-02-01T12:39:22;98398.28;;;-0.90;79.48
50672;BME280;46021;55.882;37.654;2023-02-01T12:41:56;98409.34;;;-0.83;79.61
50672;BME280;46021;55.882;37.654;2023-02-01T12:44:34;98412.69;;;-0.78;80.08
50672;BME280;46021;55.882;37.654;2023-02-01T12:47:06;98416.97;;;-0.75;80.49
50672;BME280;46021;55.882;37.654;2023-02-01T12:49:44;98411.00;;;-0.77;79.48
50672;BME280;46021;55.882;37.654;2023-02-01T12:52:16;98415.22;;;-0.73;80.50
50672;BME280;46021;55.882;37.654;2023-02-01T12:54:50;98416.06;;;-0.74;79.96
50672;BME280;46021;55.882;37.654;2023-02-01T12:57:25;98412.69;;;-0.73;80.56
50672;BME280;46021;55.882;37.654;2023-02-01T13:00:01;98420.34;;;-0.76;79.42
50672;BME280;46021;55.882;37.654;2023-02-01T13:02:35;98406.75;;;-0.82;79.55
50672;BME280;46021;55.882;37.654;2023-02-01T13:05:13;98420.34;;;-0.76;80.15
50672;BME280;46021;55.882;37.654;2023-02-01T13:07:47;98409.28;;;-0.79;80.41
50672;BME280;46021;55.882;37.654;2023-02-01T13:10:20;98411.84;;;-0.75;80.16
50672;BME280;46021;55.882;37.654;2023-02-01T13:12:51;98420.31;;;-0.70;80.21
50672;BME280;46021;55.882;37.654;2023-02-01T13:15:24;98416.91;;;-0.72;79.66
50672;BME280;46021;55.882;37.654;2023-02-01T13:17:55;98418.63;;;-0.71;80.24